Scroll down
FLIGHT INFORMATION
Asiana Airlines

AAR541

At Arrival Gate

RKSI
 EDDF
DATE: 2021-02-27
GATE: 
GATE DEPARTURE: 19:41
TAKEOFF: 19:55
DATE: 2021-02-28
GATE:  -
LANDING: 06:51
GATE ARRIVAL: 06:58
FLIGHT DATA
Crew: 
Speed: 
895 kph
Altitude: 
40,031 ft
Stage Length: 
8,543.1 km
Block Time: 
11.2 hrs
Flight Time: 
10.9 hrs
Fuel Used: 
68,905 kg
Cleared Route: RKSI SI701 SI702 SI711 SI712 BELTU BINIL NOPIK BINIL ANSIM NOGON OLBIM AGAVO IKEKA SEBLI WEH FZ TEKAM HCH DOVIV VIDEL TEMAD DUMAP CG LADIX SOTMU HUR IDKEX AVMOS ASILA UNTEN ERVEB POLHO MODUN ZAMUS GOBEZ PRING SERNA PIMIT KEMON LUTOG BAPIR AGANU GUDMI RELIK NEDAG LONKA RO USOPA SURIP NOVRA RONIK CE SOTIM SOREB PAROM NJC TETSI APRAN ULGUN OGIKA NEGNA LARTU ABGIL SORLI NETLU OGROM OSKEL SOGTE BAPES GUDES IDLIR ERSOM UMTAK ODNUS ROMUM GITOT ADLIN RUROS NEPEN MOGPI IDRAK TUBNI UMUTA BAPOK UMODI TURAL OKBES RANVA RESMO SOKVA GARSO RONUN OKPAN KUNER BEZMI LUXAL GOBRA UNVOX VAVUN ALUKA KOSIX NIMAB MAIXE LASTO ABLUM ROBEL GAPLA DEMAB SOLVU KERAX GED DF437 DF439 DF441 DF442 DF443 DF444 DF654 RW07R
TRACK DATA
50,000 ft 1,000 kts
AIRCRAFT INFO AND CUMULATIVE STATS
Aircraft Type: 
B772
Registration: 
SELCAL: 
BRDF
MSN/LN: 
30861 / 646
Operator: 
Total Flights: 
1
Total Block Time: 
11.2 hrs
Total Flight Time: 
10.9 hrs
Total Fuel Used: 
68,905 kg
DATALINK LOG | Newest first | Current as of: 2021-08-05 00:39:03
LABEL SEQUENCE CONTENT Dn/Up
QD575206:58 23▼ Dn
QC504706:51▼ Dn
2U2145EDDF 280550Z 04008KT 9999 FEW030 00/M02 Q1037 NOSIG▲ Up
2S2019EDDF▼ Dn
QB552719:55▼ Dn
QA411619:41 175▼ Dn
2U0639EDDF 271820Z 03013KT 9999 FEW024 06/01 Q1038 NOSIG▲ Up
2S0544EDDF▼ Dn
A35042CLEARED TO EDDF VIA NOPIK Y697 AGAVO A591 IKEKA W4 HCH W200 DOVIV W55 CG W34 LADIX B339 POLHO Y520 SERNA A822 LONKA R497 RO T631 NJC M59 SORLI P989 NETLU T756 ODNUS L870 RESMO DCT SOKVA DCT GARSO L134 RONUN B810 KUNER P31 LUXAL L730 ALUKA DCT KOSIX DCT NIMAB T171 LASTO T178 KERAX KERA1D. SQUAWK 1734.▲ Up
B35031RKSI EDDF RKSI HA7755 F ▼ Dn
Q03013[LINK ACK]▲ Up
Q03013[LINK TEST]▼ Dn


AIRCRAFT HISTORY
FLIGHT DATE FLIGHT NO. ORIGIN DESTINATION CLEARED ROUTE BLOCK TIME FLIGHT TIME FUEL USED PILOT
2021-02-27AAR541RKSI EDDF RKSI SI701 SI702 SI711 SI712 BELTU BINIL NOPIK BINIL ANSIM NOGON OLBIM AGAVO IKEKA SEBLI WEH FZ TEKAM HCH DOVIV VIDEL TEMAD DUMAP CG LADIX SOTMU HUR IDKEX AVMOS ASILA UNTEN ERVEB POLHO MODUN ZAMUS GOBEZ PRING SERNA PIMIT KEMON LUTOG BAPIR AGANU GUDMI RELIK NEDAG LONKA RO USOPA SURIP NOVRA RONIK CE SOTIM SOREB PAROM NJC TETSI APRAN ULGUN OGIKA NEGNA LARTU ABGIL SORLI NETLU OGROM OSKEL SOGTE BAPES GUDES IDLIR ERSOM UMTAK ODNUS ROMUM GITOT ADLIN RUROS NEPEN MOGPI IDRAK TUBNI UMUTA BAPOK UMODI TURAL OKBES RANVA RESMO SOKVA GARSO RONUN OKPAN KUNER BEZMI LUXAL GOBRA UNVOX VAVUN ALUKA KOSIX NIMAB MAIXE LASTO ABLUM ROBEL GAPLA DEMAB SOLVU KERAX GED DF437 DF439 DF441 DF442 DF443 DF444 DF654 RW07R11.2 hrs10.9 hrs151,910 lbEmanuel Hagen